Time;durP1;ratioP1;P1;durP2;ratioP2;P2;SDS_P1;SDS_P2;PMS_P1;PMS_P2;Temp;Humidity;BMP_temperature;BMP_pressure;BME280_temperature;BME280_humidity;BME280_pressure;Samples;Min_cycle;Max_cycle;Signal;HPM_P1;HPM_P2
2021/07/08 00:02:28;;;;;;;6.75;3.50;;;;;;;;;;5077303;28;20131;-75
2021/07/08 00:04:54;;;;;;;4.15;3.30;;;;;;;;;;5080952;28;20047;-75
2021/07/08 00:07:42;;;;;;;8.50;3.03;;;;;;;;;;5076071;28;20356;-75
2021/07/08 00:10:55;;;;;;;12.65;2.92;;;;;;;;;;5065061;28;20419;-75
2021/07/08 00:13:26;;;;;;;6.93;2.88;;;;;;;;;;5067143;28;20688;-75
2021/07/08 00:16:13;;;;;;;10.75;3.08;;;;;;;;;;5071311;28;20479;-75
2021/07/08 00:18:38;;;;;;;7.55;2.65;;;;;;;;;;5074141;28;20028;-75
2021/07/08 00:21:06;;;;;;;3.50;2.65;;;;;;;;;;5074882;28;20380;-75
2021/07/08 00:23:32;;;;;;;4.07;2.40;;;;;;;;;;5075527;28;20032;-75
2021/07/08 00:26:05;;;;;;;3.28;2.80;;;;;;;;;;5075591;28;20020;-75
2021/07/08 00:28:30;;;;;;;6.95;2.78;;;;;;;;;;5058691;28;20407;-75
2021/07/08 00:30:56;;;;;;;4.15;2.97;;;;;;;;;;5059099;28;20029;-75
2021/07/08 00:36:51;;;;;;;4.68;2.53;;;;;;;;;;5073725;28;20063;-75
2021/07/08 00:39:21;;;;;;;10.43;2.40;;;;;;;;;;5037298;28;20036;-75
2021/07/08 00:41:46;;;;;;;5.07;2.15;;;;;;;;;;5055209;28;20056;-75
2021/07/08 00:44:12;;;;;;;16.52;2.42;;;;;;;;;;5055143;28;20061;-76
2021/07/08 00:46:41;;;;;;;7.13;2.30;;;;;;;;;;5055335;28;20079;-75
2021/07/08 00:49:06;;;;;;;3.70;2.30;;;;;;;;;;5069427;28;20066;-75
2021/07/08 00:51:31;;;;;;;3.28;2.60;;;;;;;;;;5075197;28;20463;-75
2021/07/08 00:53:58;;;;;;;6.20;2.72;;;;;;;;;;5074991;28;20048;-74
2021/07/08 00:56:25;;;;;;;3.85;2.55;;;;;;;;;;5075194;28;20434;-74
2021/07/08 00:59:07;;;;;;;4.72;2.90;;;;;;;;;;5074990;28;20024;-75
2021/07/08 01:01:40;;;;;;;10.50;3.10;;;;;;;;;;5074504;28;20039;-74
2021/07/08 01:04:05;;;;;;;5.35;2.90;;;;;;;;;;5067864;28;20040;-75
2021/07/08 01:06:32;;;;;;;6.80;2.50;;;;;;;;;;5054978;28;20357;-75
2021/07/08 01:12:02;;;;;;;2.70;2.33;;;;;;;;;;5054983;28;20098;-75
2021/07/08 01:14:49;;;;;;;3.03;2.50;;;;;;;;;;5063560;28;20024;-75
2021/07/08 01:17:15;;;;;;;3.40;2.63;;;;;;;;;;5058492;28;20036;-75
2021/07/08 01:19:42;;;;;;;2.92;2.38;;;;;;;;;;5061718;28;20033;-75
2021/07/08 01:25:35;;;;;;;3.33;2.50;;;;;;;;;;5054701;28;20472;-75
2021/07/08 01:28:11;;;;;;;3.60;2.75;;;;;;;;;;5054334;28;20472;-75
2021/07/08 01:30:37;;;;;;;6.70;2.70;;;;;;;;;;5054732;28;20017;-75
2021/07/08 01:33:30;;;;;;;3.05;2.60;;;;;;;;;;5074028;28;20020;-75
2021/07/08 01:35:56;;;;;;;3.20;2.75;;;;;;;;;;5053928;28;20431;-75
2021/07/08 01:41:48;;;;;;;6.80;3.30;;;;;;;;;;5054452;28;20079;-75
2021/07/08 01:44:14;;;;;;;3.40;2.95;;;;;;;;;;5054297;28;20130;-75
2021/07/08 01:47:17;;;;;;;3.50;2.70;;;;;;;;;;5054158;28;20033;-75
2021/07/08 01:49:43;;;;;;;3.85;2.50;;;;;;;;;;5065213;28;20032;-75
2021/07/08 01:52:23;;;;;;;3.55;2.72;;;;;;;;;;5073907;28;20020;-75
2021/07/08 01:54:48;;;;;;;4.20;2.45;;;;;;;;;;5073851;28;20070;-75
2021/07/08 01:57:15;;;;;;;3.83;2.47;;;;;;;;;;5074027;28;20024;-75
2021/07/08 01:59:41;;;;;;;3.47;2.35;;;;;;;;;;5057635;28;20044;-75
2021/07/08 02:02:13;;;;;;;4.72;2.60;;;;;;;;;;5069012;28;20032;-75
2021/07/08 02:04:38;;;;;;;4.57;2.53;;;;;;;;;;5073786;28;20036;-74
2021/07/08 02:07:04;;;;;;;3.03;2.20;;;;;;;;;;5073656;28;20028;-74
2021/07/08 02:09:45;;;;;;;5.90;2.30;;;;;;;;;;5073568;28;20593;-75
2021/07/08 02:12:10;;;;;;;4.55;2.08;;;;;;;;;;5073325;28;20481;-75
2021/07/08 02:14:36;;;;;;;2.70;2.30;;;;;;;;;;5073821;28;20016;-75
2021/07/08 02:17:07;;;;;;;5.18;1.70;;;;;;;;;;5073716;28;20448;-75
2021/07/08 02:19:33;;;;;;;4.85;1.73;;;;;;;;;;5063280;28;20033;-75
2021/07/08 02:22:12;;;;;;;3.95;1.90;;;;;;;;;;5053640;28;20460;-75
2021/07/08 02:24:38;;;;;;;5.60;2.13;;;;;;;;;;5053715;28;20033;-75
2021/07/08 02:27:04;;;;;;;3.03;1.88;;;;;;;;;;5053671;28;20044;-75
2021/07/08 02:29:39;;;;;;;1.95;1.75;;;;;;;;;;5053594;28;20078;-75
2021/07/08 02:32:07;;;;;;;5.10;2.15;;;;;;;;;;5068135;28;20103;-74
2021/07/08 02:34:33;;;;;;;6.15;2.97;;;;;;;;;;5064217;28;20017;-75
2021/07/08 02:37:20;;;;;;;5.65;3.00;;;;;;;;;;5053401;28;20021;-75
2021/07/08 02:39:45;;;;;;;6.20;3.00;;;;;;;;;;5053493;28;20017;-75
2021/07/08 02:42:11;;;;;;;6.28;3.05;;;;;;;;;;5053416;28;20447;-75
2021/07/08 02:45:09;;;;;;;3.70;2.83;;;;;;;;;;5054038;28;20025;-75
2021/07/08 02:47:35;;;;;;;4.10;2.25;;;;;;;;;;5057623;28;20040;-75
2021/07/08 02:50:04;;;;;;;4.07;2.28;;;;;;;;;;5057578;28;20036;-75
2021/07/08 02:52:43;;;;;;;7.53;2.40;;;;;;;;;;5057316;28;20128;-75
2021/07/08 02:55:10;;;;;;;7.63;2.60;;;;;;;;;;5057493;28;20029;-75
2021/07/08 02:58:16;;;;;;;6.10;2.22;;;;;;;;;;5057430;28;20471;-76
2021/07/08 03:01:03;;;;;;;5.13;3.00;;;;;;;;;;5062684;28;20025;-75
2021/07/08 03:03:29;;;;;;;8.25;3.13;;;;;;;;;;5077088;28;20414;-75
2021/07/08 03:05:54;;;;;;;4.57;2.90;;;;;;;;;;5077207;28;20032;-75
2021/07/08 03:08:20;;;;;;;5.35;2.20;;;;;;;;;;5077095;28;20020;-74
2021/07/08 03:10:46;;;;;;;5.00;1.85;;;;;;;;;;5085121;28;20127;-75
2021/07/08 03:13:16;;;;;;;6.45;2.10;;;;;;;;;;5077315;28;20024;-75
2021/07/08 03:15:42;;;;;;;5.65;2.40;;;;;;;;;;5076807;28;20477;-75
2021/07/08 03:18:07;;;;;;;7.53;3.25;;;;;;;;;;5076172;28;20052;-76
2021/07/08 03:20:36;;;;;;;6.60;3.70;;;;;;;;;;5058119;28;20362;-75
2021/07/08 03:23:36;;;;;;;13.13;4.05;;;;;;;;;;5070829;28;20033;-75
2021/07/08 03:26:02;;;;;;;10.23;5.40;;;;;;;;;;5056877;28;20029;-75
2021/07/08 03:28:28;;;;;;;8.65;5.10;;;;;;;;;;5056576;28;20036;-75
2021/07/08 03:34:00;;;;;;;13.55;7.82;;;;;;;;;;5074578;28;20029;-74
2021/07/08 03:36:26;;;;;;;18.70;9.30;;;;;;;;;;5076726;28;20048;-74
2021/07/08 03:38:57;;;;;;;17.08;8.77;;;;;;;;;;5076551;28;20430;-74
2021/07/08 03:41:22;;;;;;;11.32;6.50;;;;;;;;;;5059181;28;20029;-74
2021/07/08 03:43:48;;;;;;;16.10;5.10;;;;;;;;;;5056783;28;20368;-74
2021/07/08 03:46:37;;;;;;;12.77;5.03;;;;;;;;;;5056585;28;20032;-74
2021/07/08 03:49:03;;;;;;;14.18;6.82;;;;;;;;;;5068532;28;20095;-74
2021/07/08 03:51:28;;;;;;;18.20;10.10;;;;;;;;;;5068829;28;20052;-73
2021/07/08 03:53:54;;;;;;;25.92;12.50;;;;;;;;;;5038300;28;20087;-74
2021/07/08 03:56:19;;;;;;;29.38;14.93;;;;;;;;;;5056109;28;20112;-74
2021/07/08 03:58:45;;;;;;;29.88;16.88;;;;;;;;;;5056248;28;20464;-73
2021/07/08 04:01:12;;;;;;;35.97;17.48;;;;;;;;;;5056211;28;20408;-73
2021/07/08 04:03:38;;;;;;;34.65;19.92;;;;;;;;;;5056122;28;20057;-73
2021/07/08 04:06:04;;;;;;;34.53;17.80;;;;;;;;;;5056173;28;20052;-73
2021/07/08 04:08:35;;;;;;;33.92;18.58;;;;;;;;;;5067115;28;20028;-72
2021/07/08 04:14:35;;;;;;;24.70;16.15;;;;;;;;;;5076167;28;20042;-74
2021/07/08 04:17:05;;;;;;;21.17;14.32;;;;;;;;;;5076109;28;20040;-74
2021/07/08 04:19:31;;;;;;;21.13;13.73;;;;;;;;;;5075155;28;20025;-74
2021/07/08 04:21:56;;;;;;;17.58;13.13;;;;;;;;;;5075797;28;20403;-74
2021/07/08 04:24:24;;;;;;;14.38;10.90;;;;;;;;;;5075624;28;20078;-74
2021/07/08 04:26:49;;;;;;;13.15;9.60;;;;;;;;;;5075916;28;20028;-73
2021/07/08 04:29:15;;;;;;;13.13;10.65;;;;;;;;;;5075772;28;20032;-74
2021/07/08 04:31:43;;;;;;;12.25;8.13;;;;;;;;;;5060414;28;20082;-74
2021/07/08 04:34:09;;;;;;;11.98;6.80;;;;;;;;;;5063138;28;20107;-74
2021/07/08 04:36:34;;;;;;;10.48;6.80;;;;;;;;;;5075563;28;20111;-74
2021/07/08 04:39:06;;;;;;;6.90;5.32;;;;;;;;;;5075447;28;20379;-74
2021/07/08 04:41:31;;;;;;;7.70;5.32;;;;;;;;;;5075282;28;20020;-75
2021/07/08 04:43:58;;;;;;;7.72;4.50;;;;;;;;;;5069530;28;20103;-73
2021/07/08 04:46:26;;;;;;;8.40;5.00;;;;;;;;;;5055328;28;20028;-74
2021/07/08 04:49:03;;;;;;;9.55;3.95;;;;;;;;;;5064788;28;20035;-73
2021/07/08 04:51:28;;;;;;;7.57;4.18;;;;;;;;;;5075206;28;20060;-75
2021/07/08 04:53:54;;;;;;;6.38;4.45;;;;;;;;;;5070591;28;20052;-74
2021/07/08 04:56:58;;;;;;;7.03;4.75;;;;;;;;;;5057020;28;20107;-74
2021/07/08 04:59:23;;;;;;;8.07;4.22;;;;;;;;;;5062892;28;20021;-75
2021/07/08 05:01:49;;;;;;;8.98;4.80;;;;;;;;;;5054812;28;20423;-75
2021/07/08 05:07:37;;;;;;;6.63;3.80;;;;;;;;;;5054515;28;20040;-74
2021/07/08 05:10:53;;;;;;;6.75;4.18;;;;;;;;;;5063508;28;20024;-74
2021/07/08 05:13:18;;;;;;;6.25;3.90;;;;;;;;;;5095044;28;20114;-74
2021/07/08 05:16:22;;;;;;;6.75;3.35;;;;;;;;;;5085386;28;20436;-74
2021/07/08 05:18:47;;;;;;;7.25;2.90;;;;;;;;;;5086099;28;20070;-75
2021/07/08 05:21:18;;;;;;;6.75;3.90;;;;;;;;;;5074527;28;20101;-75
2021/07/08 05:23:44;;;;;;;4.85;3.50;;;;;;;;;;5074743;28;20028;-75
2021/07/08 05:26:09;;;;;;;6.82;3.20;;;;;;;;;;5077104;28;20025;-74
2021/07/08 05:28:35;;;;;;;4.03;2.72;;;;;;;;;;5074512;28;20024;-75
2021/07/08 05:31:01;;;;;;;4.75;3.13;;;;;;;;;;5074511;28;20021;-74
2021/07/08 05:33:26;;;;;;;7.95;2.90;;;;;;;;;;5074398;28;20051;-75
2021/07/08 05:36:45;;;;;;;5.70;2.83;;;;;;;;;;5083702;28;20077;-74
2021/07/08 05:39:10;;;;;;;6.20;2.80;;;;;;;;;;5083474;28;20056;-75
2021/07/08 05:41:35;;;;;;;5.45;2.60;;;;;;;;;;5074476;28;20556;-75
2021/07/08 05:44:06;;;;;;;3.72;2.45;;;;;;;;;;5056511;28;20028;-74
2021/07/08 05:46:31;;;;;;;5.10;2.65;;;;;;;;;;5074108;28;20371;-75
2021/07/08 05:48:57;;;;;;;4.63;2.33;;;;;;;;;;5075634;28;20021;-74
2021/07/08 05:51:33;;;;;;;6.13;2.63;;;;;;;;;;5074050;28;20077;-74
2021/07/08 05:53:59;;;;;;;5.07;2.78;;;;;;;;;;5056316;28;20095;-74
2021/07/08 05:56:26;;;;;;;4.80;2.05;;;;;;;;;;5074107;28;20028;-74
2021/07/08 05:59:19;;;;;;;7.35;2.30;;;;;;;;;;5082553;28;20073;-75
2021/07/08 06:01:45;;;;;;;5.03;2.13;;;;;;;;;;5086901;28;20093;-75
2021/07/08 06:04:10;;;;;;;4.20;1.90;;;;;;;;;;5094031;28;20028;-75
2021/07/08 06:06:40;;;;;;;8.05;2.40;;;;;;;;;;5094059;28;20074;-74
2021/07/08 06:09:05;;;;;;;2.90;2.00;;;;;;;;;;5093908;28;20024;-74
2021/07/08 06:11:31;;;;;;;4.03;2.10;;;;;;;;;;5076599;28;20048;-75
2021/07/08 06:14:19;;;;;;;5.00;1.90;;;;;;;;;;5053637;28;20021;-74
2021/07/08 06:16:44;;;;;;;7.13;2.63;;;;;;;;;;5053553;28;20028;-75
2021/07/08 06:19:10;;;;;;;4.28;1.73;;;;;;;;;;5069348;28;20053;-75
2021/07/08 06:21:36;;;;;;;4.93;1.80;;;;;;;;;;5073449;28;20020;-75
2021/07/08 06:24:02;;;;;;;5.38;1.58;;;;;;;;;;5073537;28;20031;-75
2021/07/08 06:26:28;;;;;;;4.85;1.83;;;;;;;;;;5073372;28;20451;-75
2021/07/08 06:28:53;;;;;;;4.05;1.65;;;;;;;;;;5062073;28;20032;-74
2021/07/08 06:31:19;;;;;;;6.00;1.90;;;;;;;;;;5069834;28;20028;-75
2021/07/08 06:33:50;;;;;;;3.67;1.63;;;;;;;;;;5070095;28;20013;-75
2021/07/08 06:36:16;;;;;;;4.05;1.70;;;;;;;;;;5061682;28;20479;-76
2021/07/08 06:38:53;;;;;;;5.88;1.98;;;;;;;;;;5063505;28;20029;-77
2021/07/08 06:41:19;;;;;;;4.38;2.00;;;;;;;;;;5059378;28;20029;-77
2021/07/08 06:43:45;;;;;;;7.88;1.75;;;;;;;;;;5052536;28;20051;-78
2021/07/08 06:46:16;;;;;;;4.32;1.63;;;;;;;;;;5034751;28;20384;-77
2021/07/08 06:48:46;;;;;;;5.35;1.80;;;;;;;;;;5042218;28;20029;-77
2021/07/08 06:51:12;;;;;;;3.80;1.70;;;;;;;;;;5061164;28;20075;-75
2021/07/08 06:53:40;;;;;;;1.90;1.38;;;;;;;;;;5058112;28;20028;-77
2021/07/08 06:56:10;;;;;;;5.55;1.90;;;;;;;;;;5043946;28;20082;-73
2021/07/08 06:58:42;;;;;;;8.77;1.80;;;;;;;;;;5013648;28;20045;-75
2021/07/08 07:01:08;;;;;;;4.80;1.63;;;;;;;;;;5041201;28;20037;-69
2021/07/08 07:03:35;;;;;;;4.72;1.80;;;;;;;;;;5029037;28;20060;-73
2021/07/08 07:06:01;;;;;;;4.60;1.90;;;;;;;;;;5035206;28;20026;-70
2021/07/08 07:08:27;;;;;;;7.00;2.05;;;;;;;;;;5038164;28;20025;-73
2021/07/08 07:10:53;;;;;;;3.10;1.73;;;;;;;;;;5037582;28;20132;-74
2021/07/08 07:13:18;;;;;;;5.63;1.92;;;;;;;;;;5038428;28;20025;-77
2021/07/08 07:15:44;;;;;;;3.95;1.50;;;;;;;;;;5042410;28;20492;-77
2021/07/08 07:18:10;;;;;;;5.10;2.00;;;;;;;;;;5044441;28;20071;-77
2021/07/08 07:20:36;;;;;;;5.07;1.80;;;;;;;;;;5035671;28;20035;-77
2021/07/08 07:23:02;;;;;;;3.50;2.20;;;;;;;;;;5047722;28;20048;-78
2021/07/08 07:25:29;;;;;;;2.50;1.50;;;;;;;;;;5039035;28;20029;-77
2021/07/08 07:27:56;;;;;;;4.10;1.63;;;;;;;;;;5043200;28;20029;-77
2021/07/08 07:30:24;;;;;;;3.83;1.50;;;;;;;;;;5036045;28;20111;-75
2021/07/08 07:32:50;;;;;;;2.53;1.33;;;;;;;;;;5033979;28;20591;-76
2021/07/08 07:35:17;;;;;;;3.70;1.50;;;;;;;;;;5039945;28;20495;-77
2021/07/08 07:37:42;;;;;;;2.72;1.35;;;;;;;;;;5037459;28;20421;-78
2021/07/08 07:40:09;;;;;;;6.40;1.58;;;;;;;;;;5044309;28;20139;-73
2021/07/08 07:42:36;;;;;;;2.88;1.50;;;;;;;;;;5037097;28;20033;-74
2021/07/08 07:45:04;;;;;;;3.30;1.50;;;;;;;;;;5049054;28;20017;-74
2021/07/08 07:47:30;;;;;;;4.75;1.38;;;;;;;;;;5039556;28;20024;-73
2021/07/08 07:49:56;;;;;;;5.20;1.38;;;;;;;;;;5048829;28;20379;-74
2021/07/08 07:52:22;;;;;;;3.45;1.40;;;;;;;;;;5047468;28;20094;-75
2021/07/08 07:55:05;;;;;;;3.75;1.40;;;;;;;;;;5045586;28;20068;-73
2021/07/08 07:57:33;;;;;;;5.10;1.40;;;;;;;;;;5054294;28;20479;-73
2021/07/08 07:59:58;;;;;;;3.70;1.45;;;;;;;;;;5044035;28;20475;-73
2021/07/08 08:02:24;;;;;;;3.55;1.40;;;;;;;;;;5044707;28;20025;-73
2021/07/08 08:10:14;;;;;;;4.32;1.45;;;;;;;;;;5051252;28;20052;-74
2021/07/08 08:12:40;;;;;;;4.72;1.52;;;;;;;;;;5058634;28;20032;-74
2021/07/08 08:15:07;;;;;;;3.15;1.50;;;;;;;;;;5060062;28;20016;-74
2021/07/08 08:17:38;;;;;;;4.68;1.60;;;;;;;;;;5047741;28;20017;-74
2021/07/08 08:20:05;;;;;;;4.57;1.35;;;;;;;;;;5065948;28;20059;-77
2021/07/08 08:22:31;;;;;;;4.78;1.40;;;;;;;;;;5071718;28;20039;-77
2021/07/08 08:24:57;;;;;;;4.35;1.33;;;;;;;;;;5056546;28;20041;-76
2021/07/08 08:27:22;;;;;;;3.05;1.27;;;;;;;;;;5058893;28;20052;-75
2021/07/08 08:29:48;;;;;;;4.40;1.48;;;;;;;;;;5060506;28;20044;-76
2021/07/08 08:32:14;;;;;;;3.47;1.40;;;;;;;;;;5065547;28;20031;-74
2021/07/08 08:34:39;;;;;;;5.70;1.20;;;;;;;;;;5057302;28;20100;-75
2021/07/08 08:37:05;;;;;;;5.20;1.55;;;;;;;;;;5061009;28;20022;-74
2021/07/08 08:39:31;;;;;;;3.80;1.40;;;;;;;;;;5065748;28;20107;-74
2021/07/08 08:42:00;;;;;;;3.50;1.50;;;;;;;;;;5061228;28;20028;-78
2021/07/08 08:44:25;;;;;;;3.25;1.30;;;;;;;;;;5051913;28;20109;-77
2021/07/08 08:47:08;;;;;;;4.45;1.30;;;;;;;;;;5061186;28;20504;-76
2021/07/08 08:49:40;;;;;;;3.95;1.35;;;;;;;;;;5066368;28;20029;-76
2021/07/08 08:52:07;;;;;;;5.13;1.30;;;;;;;;;;5059811;28;20025;-77
2021/07/08 08:54:34;;;;;;;6.22;1.55;;;;;;;;;;5056507;28;20032;-76
2021/07/08 08:56:59;;;;;;;6.35;1.40;;;;;;;;;;5065333;28;20017;-79
2021/07/08 08:59:25;;;;;;;4.82;1.50;;;;;;;;;;5061433;28;20579;-78
2021/07/08 09:02:13;;;;;;;4.43;1.55;;;;;;;;;;5065421;28;20082;-77
2021/07/08 09:04:39;;;;;;;3.35;1.80;;;;;;;;;;5066296;28;20486;-77
2021/07/08 09:07:26;;;;;;;5.40;1.85;;;;;;;;;;5069291;28;20036;-76
2021/07/08 09:09:53;;;;;;;4.38;1.73;;;;;;;;;;5062925;28;20029;-74
2021/07/08 09:12:25;;;;;;;4.57;1.50;;;;;;;;;;5036464;28;20128;-74
2021/07/08 09:15:15;;;;;;;4.57;1.40;;;;;;;;;;5065342;28;20521;-73
2021/07/08 09:17:42;;;;;;;5.10;1.70;;;;;;;;;;5035935;28;20128;-74
2021/07/08 09:20:14;;;;;;;5.05;1.55;;;;;;;;;;5053464;28;20029;-77
2021/07/08 09:22:41;;;;;;;4.07;1.48;;;;;;;;;;5057949;28;20047;-77
2021/07/08 09:25:21;;;;;;;6.25;1.58;;;;;;;;;;5067953;28;20525;-74
2021/07/08 09:28:13;;;;;;;4.53;1.58;;;;;;;;;;5068361;28;20032;-76
2021/07/08 09:30:39;;;;;;;5.22;1.83;;;;;;;;;;5056221;28;20029;-76
2021/07/08 09:33:32;;;;;;;3.42;1.60;;;;;;;;;;5071125;28;20076;-76
2021/07/08 09:36:06;;;;;;;2.05;1.60;;;;;;;;;;5042815;28;20028;-76
2021/07/08 09:38:32;;;;;;;2.65;1.50;;;;;;;;;;5056980;28;20399;-73
2021/07/08 09:41:16;;;;;;;5.25;1.77;;;;;;;;;;5054509;28;20028;-74
2021/07/08 09:44:00;;;;;;;;;;;;;;;;;;5062708;28;20514;-72
2021/07/08 09:46:36;;;;;;;2.90;1.30;;;;;;;;;;5067373;28;19938;-72
2021/07/08 09:49:11;;;;;;;2.72;1.55;;;;;;;;;;5059189;28;20028;-71
2021/07/08 09:51:37;;;;;;;2.70;1.42;;;;;;;;;;5064167;28;20025;-76
2021/07/08 09:54:24;;;;;;;2.90;1.60;;;;;;;;;;5063269;28;20016;-73
2021/07/08 09:56:53;;;;;;;5.07;1.75;;;;;;;;;;5075578;28;20082;-74
2021/07/08 09:59:34;;;;;;;3.75;1.40;;;;;;;;;;5060252;28;20352;-73
2021/07/08 10:02:00;;;;;;;2.90;1.42;;;;;;;;;;5078499;28;20044;-76
2021/07/08 10:04:27;;;;;;;4.90;1.75;;;;;;;;;;5061959;28;20035;-77
2021/07/08 10:06:54;;;;;;;4.68;1.60;;;;;;;;;;5056835;28;20057;-75
2021/07/08 10:09:21;;;;;;;5.63;1.65;;;;;;;;;;5068531;28;20025;-74
2021/07/08 10:11:58;;;;;;;3.38;1.58;;;;;;;;;;5045323;28;20046;-75
2021/07/08 10:14:24;;;;;;;9.48;2.13;;;;;;;;;;5041579;28;20400;-76
2021/07/08 10:16:54;;;;;;;3.35;1.90;;;;;;;;;;5042279;28;20477;-73
2021/07/08 10:19:22;;;;;;;4.82;1.45;;;;;;;;;;5045558;28;20136;-78
2021/07/08 10:21:50;;;;;;;5.00;1.77;;;;;;;;;;5040130;28;20580;-79
2021/07/08 10:24:17;;;;;;;4.68;1.60;;;;;;;;;;5051492;28;20036;-77
2021/07/08 10:26:45;;;;;;;8.20;1.88;;;;;;;;;;5053240;28;20033;-73
2021/07/08 10:29:12;;;;;;;3.70;1.40;;;;;;;;;;5032593;28;20100;-74
2021/07/08 10:31:40;;;;;;;3.72;1.65;;;;;;;;;;5034989;28;20060;-77
2021/07/08 10:34:14;;;;;;;4.45;1.52;;;;;;;;;;5042490;28;20025;-78
2021/07/08 10:36:43;;;;;;;4.22;1.50;;;;;;;;;;5035926;28;20418;-78
2021/07/08 10:39:19;;;;;;;3.35;1.33;;;;;;;;;;5047849;28;20040;-79
2021/07/08 10:41:49;;;;;;;4.57;1.83;;;;;;;;;;5044301;28;20029;-75
2021/07/08 10:44:34;;;;;;;3.05;1.38;;;;;;;;;;5048403;28;20060;-74
2021/07/08 10:47:02;;;;;;;3.92;1.45;;;;;;;;;;5034026;28;20120;-75
2021/07/08 10:49:40;;;;;;;2.58;1.42;;;;;;;;;;5044250;28;20049;-75
2021/07/08 10:52:10;;;;;;;5.40;1.67;;;;;;;;;;5038953;28;20087;-73
2021/07/08 10:54:36;;;;;;;3.38;1.50;;;;;;;;;;5040941;28;20053;-80
2021/07/08 10:57:03;;;;;;;6.00;1.88;;;;;;;;;;5051805;28;20072;-81
2021/07/08 10:59:45;;;;;;;5.70;1.58;;;;;;;;;;5042837;28;20377;-81
2021/07/08 11:02:50;;;;;;;3.08;1.30;;;;;;;;;;5038250;28;20358;-72
2021/07/08 11:05:55;;;;;;;3.33;1.35;;;;;;;;;;5048553;28;20040;-72
2021/07/08 11:08:48;;;;;;;5.15;1.50;;;;;;;;;;5053929;28;20479;-72
2021/07/08 11:11:23;;;;;;;4.93;1.55;;;;;;;;;;5041595;28;20116;-72
2021/07/08 11:13:52;;;;;;;8.27;1.50;;;;;;;;;;5046669;28;20031;-73
2021/07/08 11:16:45;;;;;;;3.65;1.40;;;;;;;;;;5040325;28;20036;-73
2021/07/08 11:19:20;;;;;;;2.60;1.30;;;;;;;;;;5054574;28;20116;-73
2021/07/08 11:21:59;;;;;;;5.15;1.73;;;;;;;;;;5055780;28;20032;-74
2021/07/08 11:24:28;;;;;;;2.63;1.30;;;;;;;;;;5051669;28;20033;-73
2021/07/08 11:27:13;;;;;;;3.83;1.42;;;;;;;;;;5053523;28;20036;-72
2021/07/08 11:29:43;;;;;;;4.00;1.40;;;;;;;;;;5055954;28;20040;-73
2021/07/08 11:32:30;;;;;;;5.75;1.40;;;;;;;;;;5056327;28;20052;-73
2021/07/08 11:34:59;;;;;;;4.57;1.42;;;;;;;;;;5052298;28;20535;-73
2021/07/08 11:40:05;;;;;;;3.50;1.63;;;;;;;;;;5046462;28;20107;-73
2021/07/08 11:42:33;;;;;;;3.35;1.58;;;;;;;;;;5054305;28;20111;-75
2021/07/08 11:45:25;;;;;;;3.97;1.40;;;;;;;;;;5039548;28;20037;-75
2021/07/08 11:47:55;;;;;;;4.10;1.33;;;;;;;;;;5053162;28;20037;-74
2021/07/08 11:50:45;;;;;;;5.32;1.50;;;;;;;;;;5039216;28;20029;-75
2021/07/08 11:53:17;;;;;;;4.95;1.25;;;;;;;;;;5040065;28;20048;-74
2021/07/08 11:55:49;;;;;;;6.55;1.40;;;;;;;;;;5042805;28;20029;-76
2021/07/08 11:58:23;;;;;;;3.42;1.30;;;;;;;;;;5034554;28;20362;-75
2021/07/08 12:00:51;;;;;;;4.57;1.67;;;;;;;;;;5038285;28;20056;-77
2021/07/08 12:04:05;;;;;;;3.83;1.50;;;;;;;;;;5050179;28;20032;-76
2021/07/08 12:06:33;;;;;;;3.45;1.17;;;;;;;;;;5038629;28;20684;-75
2021/07/08 12:09:01;;;;;;;2.90;1.17;;;;;;;;;;5045000;28;20033;-76
2021/07/08 12:11:33;;;;;;;2.95;1.00;;;;;;;;;;5064133;28;20503;-75
2021/07/08 12:14:07;;;;;;;3.42;1.27;;;;;;;;;;5066343;28;20029;-74
2021/07/08 12:16:45;;;;;;;2.58;1.40;;;;;;;;;;5040276;28;20033;-75
2021/07/08 12:19:30;;;;;;;4.30;1.30;;;;;;;;;;5060561;28;20036;-76
2021/07/08 12:22:02;;;;;;;3.00;1.20;;;;;;;;;;5061835;28;20020;-76
2021/07/08 12:24:31;;;;;;;2.50;1.17;;;;;;;;;;5063512;28;20381;-75
2021/07/08 12:26:59;;;;;;;3.13;1.23;;;;;;;;;;5068981;28;20530;-75
2021/07/08 12:29:28;;;;;;;4.72;1.30;;;;;;;;;;5068336;28;20028;-76
2021/07/08 12:31:58;;;;;;;2.65;1.35;;;;;;;;;;5058107;28;20503;-75
2021/07/08 12:34:44;;;;;;;2.88;1.08;;;;;;;;;;5062846;28;20021;-77
2021/07/08 12:37:11;;;;;;;2.97;0.90;;;;;;;;;;5052389;28;20063;-76
2021/07/08 12:39:40;;;;;;;3.78;1.30;;;;;;;;;;5064469;28;20024;-75
2021/07/08 12:42:07;;;;;;;2.50;1.13;;;;;;;;;;5059890;28;20082;-73
2021/07/08 12:44:33;;;;;;;3.80;1.30;;;;;;;;;;5059802;28;20024;-74
2021/07/08 12:46:59;;;;;;;18.88;1.63;;;;;;;;;;5063414;28;20569;-75
2021/07/08 12:49:25;;;;;;;4.60;1.20;;;;;;;;;;5065362;28;20118;-73
2021/07/08 12:51:51;;;;;;;4.28;1.10;;;;;;;;;;5057457;28;20029;-77
2021/07/08 12:54:27;;;;;;;2.92;1.00;;;;;;;;;;5065777;28;20016;-80
2021/07/08 12:57:10;;;;;;;4.10;1.40;;;;;;;;;;5073609;28;20082;-79
2021/07/08 12:59:37;;;;;;;2.35;0.95;;;;;;;;;;5060215;28;20078;-77
2021/07/08 13:02:03;;;;;;;3.85;1.13;;;;;;;;;;5073061;28;20412;-77
2021/07/08 13:04:32;;;;;;;4.85;1.50;;;;;;;;;;5059571;28;20056;-79
2021/07/08 13:07:03;;;;;;;3.22;0.93;;;;;;;;;;5060418;28;20242;-80
2021/07/08 13:09:32;;;;;;;3.22;1.08;;;;;;;;;;5059346;28;20021;-80
2021/07/08 13:12:16;;;;;;;2.28;0.82;;;;;;;;;;5054028;28;20049;-79
2021/07/08 13:14:42;;;;;;;2.60;1.20;;;;;;;;;;5049503;28;20017;-82
2021/07/08 13:17:27;;;;;;;3.95;1.00;;;;;;;;;;5052276;28;20035;-78
2021/07/08 13:20:42;;;;;;;5.43;1.20;;;;;;;;;;5049827;28;20017;-77
2021/07/08 13:23:17;;;;;;;4.10;1.10;;;;;;;;;;5033328;28;20041;-75
2021/07/08 13:26:08;;;;;;;1.88;0.93;;;;;;;;;;5027158;28;20021;-78
2021/07/08 13:28:34;;;;;;;2.00;0.98;;;;;;;;;;5045988;28;20032;-80
2021/07/08 13:31:05;;;;;;;3.30;1.08;;;;;;;;;;5021650;28;20044;-79
2021/07/08 13:33:50;;;;;;;3.10;1.10;;;;;;;;;;5043550;28;20025;-72
2021/07/08 13:36:18;;;;;;;2.80;1.08;;;;;;;;;;5034980;28;20352;-74
2021/07/08 13:39:13;;;;;;;4.25;1.13;;;;;;;;;;5048982;28;20036;-74
2021/07/08 13:41:44;;;;;;;2.50;1.00;;;;;;;;;;5032664;28;20220;-73
2021/07/08 13:44:12;;;;;;;2.60;1.05;;;;;;;;;;5042170;28;20036;-73
2021/07/08 13:46:40;;;;;;;5.07;1.00;;;;;;;;;;5041939;28;20032;-73
2021/07/08 13:49:20;;;;;;;1.77;0.80;;;;;;;;;;5034288;28;20017;-74
2021/07/08 13:51:59;;;;;;;4.28;1.00;;;;;;;;;;5041603;28;20030;-73
2021/07/08 13:54:45;;;;;;;2.95;1.08;;;;;;;;;;5034280;28;20022;-74
2021/07/08 13:57:14;;;;;;;3.88;1.13;;;;;;;;;;5036170;28;20048;-74
2021/07/08 13:59:58;;;;;;;2.88;1.05;;;;;;;;;;5040982;28;20404;-70
2021/07/08 14:02:23;;;;;;;2.33;1.00;;;;;;;;;;5038623;28;20120;-74
2021/07/08 14:04:51;;;;;;;2.92;1.05;;;;;;;;;;5047258;28;20424;-71
2021/07/08 14:07:16;;;;;;;3.00;0.90;;;;;;;;;;5033038;28;20033;-71
2021/07/08 14:09:43;;;;;;;2.00;0.95;;;;;;;;;;5036378;28;20124;-71
2021/07/08 14:12:09;;;;;;;2.90;1.10;;;;;;;;;;5038888;28;20064;-71
2021/07/08 14:14:34;;;;;;;4.47;1.30;;;;;;;;;;5057618;28;20072;-71
2021/07/08 14:17:00;;;;;;;3.47;1.25;;;;;;;;;;5061789;28;20640;-74
2021/07/08 14:19:36;;;;;;;3.60;1.10;;;;;;;;;;5056701;28;20031;-71
2021/07/08 14:22:02;;;;;;;2.13;1.10;;;;;;;;;;5060743;28;20032;-78
2021/07/08 14:24:28;;;;;;;6.15;1.23;;;;;;;;;;5069027;28;20031;-77
2021/07/08 14:26:54;;;;;;;3.72;1.35;;;;;;;;;;5073699;28;20506;-81
2021/07/08 14:29:20;;;;;;;5.13;1.30;;;;;;;;;;5053824;28;20048;-75
2021/07/08 14:31:47;;;;;;;3.72;1.25;;;;;;;;;;5029557;28;20037;-77
2021/07/08 14:34:13;;;;;;;2.83;1.20;;;;;;;;;;5058518;28;20048;-76
2021/07/08 14:36:39;;;;;;;4.10;1.40;;;;;;;;;;5054518;28;20465;-76
2021/07/08 14:39:05;;;;;;;1.50;1.10;;;;;;;;;;5068886;28;20024;-78
2021/07/08 14:41:47;;;;;;;7.85;1.50;;;;;;;;;;5057913;28;20021;-78
2021/07/08 14:44:33;;;;;;;4.15;1.50;;;;;;;;;;5047291;28;20496;-80
2021/07/08 14:47:04;;;;;;;4.38;1.52;;;;;;;;;;5063123;28;20025;-72
2021/07/08 14:49:29;;;;;;;2.65;1.27;;;;;;;;;;5067392;28;20036;-73
2021/07/08 14:51:59;;;;;;;4.38;1.48;;;;;;;;;;5093609;28;20027;-75
2021/07/08 14:54:25;;;;;;;2.53;1.20;;;;;;;;;;5078066;28;20043;-71
2021/07/08 14:56:53;;;;;;;4.50;1.40;;;;;;;;;;5068198;28;20032;-72
2021/07/08 14:59:20;;;;;;;5.20;1.15;;;;;;;;;;5066854;28;20049;-73
2021/07/08 15:01:45;;;;;;;5.22;1.20;;;;;;;;;;5064074;28;20036;-73
2021/07/08 15:04:11;;;;;;;4.25;1.30;;;;;;;;;;5052151;28;20017;-72
2021/07/08 15:06:37;;;;;;;2.33;1.30;;;;;;;;;;5058366;28;20048;-73
2021/07/08 15:09:04;;;;;;;5.07;1.33;;;;;;;;;;5069739;28;20392;-73
2021/07/08 15:11:29;;;;;;;3.80;1.85;;;;;;;;;;5038304;28;20048;-72
2021/07/08 15:13:54;;;;;;;2.90;1.40;;;;;;;;;;5040556;28;20021;-77
2021/07/08 15:16:20;;;;;;;3.45;1.50;;;;;;;;;;5043173;28;20025;-75
2021/07/08 15:18:47;;;;;;;5.10;1.70;;;;;;;;;;5035934;28;20032;-77
2021/07/08 15:21:12;;;;;;;2.70;1.30;;;;;;;;;;5033186;28;20044;-77
2021/07/08 15:23:42;;;;;;;3.28;1.40;;;;;;;;;;5044184;28;20108;-77
2021/07/08 15:26:08;;;;;;;4.47;1.50;;;;;;;;;;5041537;28;20040;-77
2021/07/08 15:28:35;;;;;;;3.97;1.35;;;;;;;;;;5038576;28;20021;-76
2021/07/08 15:31:00;;;;;;;2.97;1.48;;;;;;;;;;5049076;28;20029;-76
2021/07/08 15:33:26;;;;;;;6.28;1.80;;;;;;;;;;5027471;28;20021;-77
2021/07/08 15:35:52;;;;;;;6.75;1.50;;;;;;;;;;5030826;28;20072;-77
2021/07/08 15:38:18;;;;;;;2.55;1.20;;;;;;;;;;5037999;28;20067;-78